Time;durP1;ratioP1;P1;durP2;ratioP2;P2;SDS_P1;SDS_P2;PMS_P1;PMS_P2;Temp;Humidity;BMP_temperature;BMP_pressure;BME280_temperature;BME280_humidity;BME280_pressure;Samples;Min_cycle;Max_cycle;Signal;HPM_P1;HPM_P2
2023/01/25 00:00:24;;;;;;;;;;;15.50;39.30;;;;;;5128103;28;20403;-71
2023/01/25 00:02:49;;;;;;;;;;;15.50;39.30;;;;;;5128267;28;19924;-72
2023/01/25 00:05:15;;;;;;;;;;;15.50;39.30;;;;;;5128374;28;19924;-71
2023/01/25 00:07:40;;;;;;;;;;;15.50;39.20;;;;;;5129814;27;19919;-72
2023/01/25 00:10:06;;;;;;;;;;;15.50;39.20;;;;;;5129157;27;20053;-71
2023/01/25 00:12:32;;;;;;;;;;;15.50;39.20;;;;;;5128067;28;19972;-71
2023/01/25 00:14:57;;;;;;;;;;;15.50;39.30;;;;;;5129212;27;20302;-71
2023/01/25 00:17:23;;;;;;;;;;;15.50;39.20;;;;;;5127975;28;19926;-71
2023/01/25 00:19:49;;;;;;;;;;;15.50;39.30;;;;;;5129315;27;20018;-72
2023/01/25 00:22:14;;;;;;;;;;;15.50;39.20;;;;;;5129697;27;19923;-73
2023/01/25 00:24:40;;;;;;;;;;;15.50;39.20;;;;;;5128502;28;20018;-70
2023/01/25 00:27:05;;;;;;;;;;;15.50;39.30;;;;;;5129585;27;20369;-71
2023/01/25 00:29:31;;;;;;;;;;;15.50;39.20;;;;;;5127544;28;20011;-70
2023/01/25 00:40:06;;;;;;;;;;;15.50;39.20;;;;;;5129780;27;19916;-71
2023/01/25 00:42:31;;;;;;;;;;;15.40;39.10;;;;;;5129402;28;19926;-72
2023/01/25 00:44:57;;;;;;;;;;;15.50;39.20;;;;;;5130415;27;20334;-71
2023/01/25 00:47:23;;;;;;;;;;;15.40;39.10;;;;;;5129028;28;19970;-71
2023/01/25 00:49:49;;;;;;;;;;;15.40;39.10;;;;;;5128354;28;19923;-70
2023/01/25 00:52:14;;;;;;;;;;;15.40;39.10;;;;;;5128615;28;19945;-71
2023/01/25 00:54:40;;;;;;;;;;;15.40;39.20;;;;;;5128818;28;19920;-71
2023/01/25 00:57:06;;;;;;;;;;;15.40;39.20;;;;;;5129530;28;19930;-71
2023/01/25 00:59:31;;;;;;;;;;;15.40;39.20;;;;;;5130247;28;20022;-71
2023/01/25 01:01:57;;;;;;;;;;;15.40;39.30;;;;;;5130280;27;20423;-70
2023/01/25 01:04:24;;;;;;;;;;;15.40;39.20;;;;;;5129338;28;20327;-71
2023/01/25 01:06:50;;;;;;;;;;;15.40;39.20;;;;;;5129017;28;20402;-70
2023/01/25 01:09:16;;;;;;;;;;;15.40;39.20;;;;;;5130168;27;20018;-70
2023/01/25 01:11:42;;;;;;;;;;;15.40;39.30;;;;;;5128882;28;19927;-70
2023/01/25 01:14:08;;;;;;;;;;;15.40;39.20;;;;;;5129047;28;19920;-72
2023/01/25 01:16:33;;;;;;;;;;;15.40;39.20;;;;;;5128670;28;20267;-71
2023/01/25 01:18:59;;;;;;;;;;;15.40;39.20;;;;;;5129840;27;19930;-71
2023/01/25 01:21:24;;;;;;;;;;;15.50;39.20;;;;;;5130068;28;19919;-71
2023/01/25 01:23:50;;;;;;;;;;;15.60;39.10;;;;;;5128948;28;20167;-71
2023/01/25 01:26:18;;;;;;;;;;;15.90;38.80;;;;;;5128761;28;19976;-72
2023/01/25 01:28:44;;;;;;;;;;;16.20;38.60;;;;;;5128528;28;20413;-71
2023/01/25 01:31:11;;;;;;;;;;;16.40;38.20;;;;;;5128416;28;19959;-71
2023/01/25 01:33:36;;;;;;;;;;;16.80;37.80;;;;;;5128337;28;19919;-71
2023/01/25 01:36:06;;;;;;;;;;;17.30;37.40;;;;;;5162879;27;19919;-71
2023/01/25 01:38:32;;;;;;;;;;;17.80;36.70;;;;;;5127846;28;20394;-72
2023/01/25 01:40:57;;;;;;;;;;;18.30;36.20;;;;;;5129585;28;19978;-71
2023/01/25 01:43:23;;;;;;;;;;;18.80;35.50;;;;;;5128568;28;20336;-72
2023/01/25 01:48:35;;;;;;;;;;;19.60;34.60;;;;;;5109561;27;19916;-69
2023/01/25 01:51:07;;;;;;;;;;;19.90;34.00;;;;;;5108825;28;19920;-68
2023/01/25 01:53:33;;;;;;;;;;;20.20;33.70;;;;;;5109071;28;19959;-68
2023/01/25 01:56:00;;;;;;;;;;;20.40;33.20;;;;;;5109125;28;20405;-71
2023/01/25 01:58:26;;;;;;;;;;;20.60;33.00;;;;;;5108820;28;20033;-69
2023/01/25 02:00:51;;;;;;;;;;;20.80;33.50;;;;;;5108948;28;19924;-70
2023/01/25 02:03:17;;;;;;;;;;;20.90;32.50;;;;;;5108668;28;20268;-70
2023/01/25 02:06:03;;;;;;;;;;;21.00;32.50;;;;;;5109205;28;20260;-69
2023/01/25 02:08:32;;;;;;;;;;;21.10;32.20;;;;;;5108435;28;19930;-69
2023/01/25 02:10:59;;;;;;;;;;;21.10;32.00;;;;;;5108853;28;19920;-70
2023/01/25 02:13:25;;;;;;;;;;;21.10;32.00;;;;;;5108775;28;19927;-69
2023/01/25 02:15:52;;;;;;;;;;;21.10;31.90;;;;;;5108451;28;20014;-70
2023/01/25 02:18:18;;;;;;;;;;;21.10;32.00;;;;;;5108616;28;20417;-71
2023/01/25 02:20:45;;;;;;;;;;;21.00;32.00;;;;;;5109661;28;19920;-70
2023/01/25 02:25:51;;;;;;;;;;;20.80;31.90;;;;;;5110265;27;19919;-72
2023/01/25 02:30:57;;;;;;;;;;;20.60;32.30;;;;;;5110231;27;19931;-69
2023/01/25 02:33:23;;;;;;;;;;;20.60;32.30;;;;;;5108746;28;19920;-70
2023/01/25 02:35:50;;;;;;;;;;;20.40;32.30;;;;;;5108821;28;20405;-70
2023/01/25 02:38:17;;;;;;;;;;;20.30;32.40;;;;;;5110013;28;20329;-70
2023/01/25 02:41:01;;;;;;;;;;;20.20;32.50;;;;;;5108695;28;19924;-70
2023/01/25 02:43:31;;;;;;;;;;;20.10;32.60;;;;;;5108968;28;19920;-70
2023/01/25 02:46:02;;;;;;;;;;;20.00;32.70;;;;;;5109017;28;19920;-69
2023/01/25 02:48:27;;;;;;;;;;;20.00;32.70;;;;;;5108550;28;19926;-70
2023/01/25 02:50:53;;;;;;;;;;;20.00;32.70;;;;;;5109838;28;19920;-69
2023/01/25 02:53:18;;;;;;;;;;;20.00;32.70;;;;;;5108660;28;20022;-70
2023/01/25 02:55:44;;;;;;;;;;;20.10;32.60;;;;;;5108533;28;20401;-70
2023/01/25 02:58:12;;;;;;;;;;;20.00;32.60;;;;;;5109599;28;19926;-69
2023/01/25 03:00:38;;;;;;;;;;;20.10;32.70;;;;;;5109672;28;19974;-70
2023/01/25 03:03:06;;;;;;;;;;;20.10;32.70;;;;;;5108532;28;20321;-70
2023/01/25 03:05:32;;;;;;;;;;;20.10;32.60;;;;;;5108555;28;19927;-69
2023/01/25 03:07:57;;;;;;;;;;;20.10;32.50;;;;;;5109461;28;19920;-69
2023/01/25 03:10:26;;;;;;;;;;;20.10;32.50;;;;;;5108142;28;20007;-69
2023/01/25 03:12:52;;;;;;;;;;;20.10;32.50;;;;;;5108413;28;19927;-69
2023/01/25 03:15:17;;;;;;;;;;;20.20;32.50;;;;;;5109473;28;20363;-70
2023/01/25 03:17:43;;;;;;;;;;;20.30;32.50;;;;;;5109359;28;19927;-71
2023/01/25 03:20:09;;;;;;;;;;;20.40;32.40;;;;;;5107994;28;19932;-72
2023/01/25 03:22:34;;;;;;;;;;;20.40;32.30;;;;;;5108240;28;19920;-70
2023/01/25 03:25:00;;;;;;;;;;;20.40;32.20;;;;;;5107846;28;19927;-69
2023/01/25 03:27:27;;;;;;;;;;;20.50;32.10;;;;;;5109144;28;19970;-70
2023/01/25 03:29:53;;;;;;;;;;;20.50;32.20;;;;;;5107589;28;20390;-69
2023/01/25 03:32:18;;;;;;;;;;;20.50;32.10;;;;;;5142389;27;19924;-69
2023/01/25 03:34:44;;;;;;;;;;;20.50;32.30;;;;;;5107944;28;20260;-70
2023/01/25 03:37:09;;;;;;;;;;;20.50;32.10;;;;;;5108907;28;19973;-69
2023/01/25 03:39:35;;;;;;;;;;;20.50;32.20;;;;;;5107490;28;19969;-70
2023/01/25 03:42:01;;;;;;;;;;;20.40;32.10;;;;;;5095578;28;19927;-69
2023/01/25 03:44:26;;;;;;;;;;;20.40;32.10;;;;;;5093949;28;19978;-70
2023/01/25 03:46:52;;;;;;;;;;;20.40;32.30;;;;;;5095186;28;19967;-70
2023/01/25 03:49:18;;;;;;;;;;;20.30;32.20;;;;;;5095399;28;19927;-70
2023/01/25 03:51:43;;;;;;;;;;;20.30;32.30;;;;;;5094041;28;19920;-70
2023/01/25 03:54:09;;;;;;;;;;;20.30;32.40;;;;;;5093972;28;20291;-69
2023/01/25 03:56:35;;;;;;;;;;;20.20;32.30;;;;;;5094989;28;20405;-69
2023/01/25 03:59:03;;;;;;;;;;;20.20;32.40;;;;;;5094034;28;20014;-69
2023/01/25 04:01:29;;;;;;;;;;;20.10;32.40;;;;;;5094853;28;19924;-69
2023/01/25 04:03:54;;;;;;;;;;;20.10;32.50;;;;;;5094974;28;20347;-69
2023/01/25 04:06:20;;;;;;;;;;;20.10;32.50;;;;;;5093553;28;19926;-70
2023/01/25 04:08:45;;;;;;;;;;;20.00;32.50;;;;;;5094826;28;20018;-69
2023/01/25 04:11:11;;;;;;;;;;;20.00;32.50;;;;;;5094631;28;20689;-70
2023/01/25 04:13:37;;;;;;;;;;;20.10;32.60;;;;;;5093429;28;19920;-70
2023/01/25 04:16:03;;;;;;;;;;;20.00;32.60;;;;;;5093696;28;20019;-70
2023/01/25 04:18:29;;;;;;;;;;;20.00;32.50;;;;;;5094651;28;19939;-70
2023/01/25 04:20:56;;;;;;;;;;;20.10;32.60;;;;;;5093314;28;19923;-69
2023/01/25 04:23:22;;;;;;;;;;;20.10;32.50;;;;;;5093278;28;19924;-70
2023/01/25 04:25:55;;;;;;;;;;;20.10;32.60;;;;;;5093179;28;19970;-69
2023/01/25 04:28:21;;;;;;;;;;;20.10;32.40;;;;;;5093523;28;19920;-69
2023/01/25 04:30:46;;;;;;;;;;;20.10;32.40;;;;;;5092813;28;20393;-69
2023/01/25 04:33:12;;;;;;;;;;;20.10;32.40;;;;;;5094198;28;19927;-70
2023/01/25 04:35:38;;;;;;;;;;;20.10;32.40;;;;;;5094334;28;19920;-70
2023/01/25 04:38:03;;;;;;;;;;;20.10;32.40;;;;;;5127268;27;20377;-70
2023/01/25 04:40:29;;;;;;;;;;;20.10;32.40;;;;;;5092821;28;20394;-70
2023/01/25 04:42:54;;;;;;;;;;;20.10;32.40;;;;;;5094268;28;20014;-69
2023/01/25 04:45:20;;;;;;;;;;;20.10;32.40;;;;;;5127258;27;20021;-70
2023/01/25 04:47:46;;;;;;;;;;;20.10;32.40;;;;;;5092831;28;20376;-69
2023/01/25 04:50:11;;;;;;;;;;;20.10;32.40;;;;;;5094071;28;19924;-70
2023/01/25 04:52:37;;;;;;;;;;;20.10;32.30;;;;;;5125905;27;19963;-69
2023/01/25 04:55:02;;;;;;;;;;;20.10;32.40;;;;;;5093870;28;19966;-69
2023/01/25 04:57:28;;;;;;;;;;;20.10;32.40;;;;;;5092739;28;19931;-69
2023/01/25 04:59:53;;;;;;;;;;;20.10;32.30;;;;;;5092583;28;19966;-69
2023/01/25 05:02:19;;;;;;;;;;;20.10;33.20;;;;;;5093661;28;20014;-70
2023/01/25 05:04:44;;;;;;;;;;;20.10;32.40;;;;;;5126503;27;19958;-70
2023/01/25 05:07:10;;;;;;;;;;;20.10;32.40;;;;;;5126495;27;19955;-70
2023/01/25 05:09:35;;;;;;;;;;;20.10;32.40;;;;;;5092462;28;19924;-70
2023/01/25 05:12:01;;;;;;;;;;;20.10;32.40;;;;;;5126644;27;20457;-69
2023/01/25 05:14:26;;;;;;;;;;;20.10;32.40;;;;;;5093657;28;20041;-70
2023/01/25 05:16:52;;;;;;;;;;;20.10;32.40;;;;;;5093680;28;20404;-70
2023/01/25 05:19:18;;;;;;;;;;;20.10;32.40;;;;;;5092101;28;19981;-70
2023/01/25 05:21:58;;;;;;;;;;;20.10;32.40;;;;;;5093431;28;19927;-70
2023/01/25 05:24:24;;;;;;;;;;;20.10;32.40;;;;;;5092307;28;20299;-70
2023/01/25 05:27:02;;;;;;;;;;;20.20;32.40;;;;;;5092074;28;20017;-69
2023/01/25 05:29:30;;;;;;;;;;;20.20;32.20;;;;;;5091605;28;19995;-70
2023/01/25 05:31:56;;;;;;;;;;;20.30;32.30;;;;;;5092169;28;19943;-69
2023/01/25 05:34:21;;;;;;;;;;;20.30;32.20;;;;;;5091846;28;19927;-69
2023/01/25 05:36:47;;;;;;;;;;;20.30;32.10;;;;;;5092159;28;19920;-69
2023/01/25 05:39:13;;;;;;;;;;;20.30;32.10;;;;;;5092955;28;20341;-70
2023/01/25 05:41:38;;;;;;;;;;;20.30;32.10;;;;;;5093370;28;19920;-70
2023/01/25 05:44:04;;;;;;;;;;;20.30;32.00;;;;;;5093331;28;20287;-70
2023/01/25 05:46:29;;;;;;;;;;;20.40;32.10;;;;;;5091147;28;19920;-71
2023/01/25 05:48:55;;;;;;;;;;;20.40;32.00;;;;;;5091311;28;19924;-70
2023/01/25 05:51:22;;;;;;;;;;;20.40;32.00;;;;;;5093015;28;19934;-71
2023/01/25 05:53:47;;;;;;;;;;;20.30;32.70;;;;;;5091327;28;19927;-70
2023/01/25 05:56:13;;;;;;;;;;;20.30;32.00;;;;;;5092286;28;20280;-70
2023/01/25 05:58:38;;;;;;;;;;;20.30;31.90;;;;;;5092457;28;19930;-70
2023/01/25 06:01:10;;;;;;;;;;;20.30;31.90;;;;;;5090822;28;20261;-70
2023/01/25 06:03:39;;;;;;;;;;;20.30;31.90;;;;;;5091802;28;19930;-70
2023/01/25 06:06:05;;;;;;;;;;;20.30;31.90;;;;;;5091064;28;19920;-71
2023/01/25 06:08:30;;;;;;;;;;;20.30;31.90;;;;;;5092064;28;19998;-71
2023/01/25 06:10:56;;;;;;;;;;;20.30;31.90;;;;;;5090530;28;20652;-70
2023/01/25 06:13:22;;;;;;;;;;;20.20;31.90;;;;;;5090724;28;19945;-70
2023/01/25 06:15:52;;;;;;;;;;;20.20;31.90;;;;;;5090275;28;19943;-70
2023/01/25 06:18:17;;;;;;;;;;;20.20;31.90;;;;;;5091864;28;20375;-71
2023/01/25 06:20:43;;;;;;;;;;;20.30;31.90;;;;;;5090767;28;19927;-70
2023/01/25 06:23:08;;;;;;;;;;;20.20;31.80;;;;;;5090565;28;19924;-70
2023/01/25 06:25:34;;;;;;;;;;;20.30;31.90;;;;;;5090651;28;20049;-70
2023/01/25 06:27:59;;;;;;;;;;;20.20;31.80;;;;;;5092212;28;20042;-70
2023/01/25 06:30:25;;;;;;;;;;;20.20;31.80;;;;;;5107447;28;19924;-70
2023/01/25 06:32:50;;;;;;;;;;;20.20;31.70;;;;;;5093446;28;20064;-70
2023/01/25 06:35:16;;;;;;;;;;;20.20;31.80;;;;;;5111395;28;19927;-70
2023/01/25 06:37:41;;;;;;;;;;;20.20;31.90;;;;;;5111074;28;20336;-69
2023/01/25 06:40:07;;;;;;;;;;;20.20;31.90;;;;;;5091952;28;20379;-72
2023/01/25 06:42:33;;;;;;;;;;;20.20;32.20;;;;;;5109905;28;19929;-65
2023/01/25 06:44:58;;;;;;;;;;;20.20;32.80;;;;;;5092231;28;19924;-65
2023/01/25 06:47:27;;;;;;;;;;;20.00;32.80;;;;;;5108075;28;20098;-68
2023/01/25 06:49:52;;;;;;;;;;;20.10;33.10;;;;;;5106752;28;19951;-67
2023/01/25 06:52:18;;;;;;;;;;;20.00;33.30;;;;;;5105080;28;20362;-69
2023/01/25 06:54:43;;;;;;;;;;;20.00;33.50;;;;;;5086429;28;20398;-69
2023/01/25 06:57:10;;;;;;;;;;;19.90;33.30;;;;;;5087389;28;20370;-69
2023/01/25 06:59:36;;;;;;;;;;;20.00;33.60;;;;;;5107214;28;20018;-70
2023/01/25 07:02:02;;;;;;;;;;;20.00;33.80;;;;;;5103528;28;20407;-68
2023/01/25 07:04:30;;;;;;;;;;;20.00;33.80;;;;;;5087012;28;20358;-68
2023/01/25 07:06:59;;;;;;;;;;;20.00;33.70;;;;;;5083397;28;19920;-68
2023/01/25 07:09:24;;;;;;;;;;;20.10;33.70;;;;;;5084560;28;19971;-67
2023/01/25 07:11:50;;;;;;;;;;;20.00;33.70;;;;;;5088507;28;19982;-68
2023/01/25 07:14:15;;;;;;;;;;;20.00;33.70;;;;;;5115963;28;20343;-67
2023/01/25 07:16:41;;;;;;;;;;;20.10;33.70;;;;;;5072860;28;19919;-68
2023/01/25 07:19:09;;;;;;;;;;;20.10;33.70;;;;;;5076154;28;20329;-68
2023/01/25 07:21:35;;;;;;;;;;;20.10;33.60;;;;;;5106841;27;19931;-68
2023/01/25 07:24:01;;;;;;;;;;;20.10;33.60;;;;;;5079252;28;19924;-69
2023/01/25 07:26:27;;;;;;;;;;;20.10;33.50;;;;;;5098394;28;19928;-68
2023/01/25 07:28:54;;;;;;;;;;;20.20;33.80;;;;;;5093981;27;19957;-69
2023/01/25 07:31:20;;;;;;;;;;;20.10;33.60;;;;;;5087792;28;19967;-70
2023/01/25 07:33:48;;;;;;;;;;;20.10;32.90;;;;;;5092805;27;20015;-68
2023/01/25 07:36:13;;;;;;;;;;;20.00;33.00;;;;;;5089744;28;20405;-66
2023/01/25 07:38:39;;;;;;;;;;;19.90;33.30;;;;;;5073591;28;19924;-70
2023/01/25 07:41:05;;;;;;;;;;;20.10;33.50;;;;;;5075223;28;19923;-67
2023/01/25 07:43:30;;;;;;;;;;;20.10;33.50;;;;;;5074746;28;20626;-66
2023/01/25 07:45:59;;;;;;;;;;;20.20;33.50;;;;;;5090758;28;19939;-68
2023/01/25 07:48:25;;;;;;;;;;;20.20;33.60;;;;;;5073013;28;20002;-72
2023/01/25 07:51:10;;;;;;;;;;;20.30;33.60;;;;;;5092265;28;20007;-68
2023/01/25 07:53:36;;;;;;;;;;;20.40;33.50;;;;;;5080639;28;19977;-69
2023/01/25 07:56:01;;;;;;;;;;;20.50;33.50;;;;;;5096090;28;19923;-68
2023/01/25 07:58:27;;;;;;;;;;;20.40;33.50;;;;;;5081198;28;19920;-69
2023/01/25 08:00:52;;;;;;;;;;;20.40;33.40;;;;;;5096612;28;19926;-68
2023/01/25 08:03:21;;;;;;;;;;;20.50;33.30;;;;;;5100625;27;19939;-68
2023/01/25 08:05:46;;;;;;;;;;;20.50;33.30;;;;;;5095715;28;19931;-69
2023/01/25 08:08:12;;;;;;;;;;;20.40;33.40;;;;;;5094128;28;19924;-68
2023/01/25 08:10:37;;;;;;;;;;;20.30;33.40;;;;;;5092528;28;19963;-68
2023/01/25 08:13:03;;;;;;;;;;;20.20;33.40;;;;;;5092196;28;19924;-67
2023/01/25 08:15:28;;;;;;;;;;;20.20;33.70;;;;;;5081546;28;19946;-67
2023/01/25 08:17:57;;;;;;;;;;;20.10;33.60;;;;;;5076169;28;20400;-69
2023/01/25 08:20:23;;;;;;;;;;;20.10;33.60;;;;;;5092343;28;20394;-69
2023/01/25 08:22:50;;;;;;;;;;;20.10;33.60;;;;;;5108186;27;19927;-68
2023/01/25 08:25:16;;;;;;;;;;;20.10;33.50;;;;;;5080711;28;19923;-70
2023/01/25 08:27:41;;;;;;;;;;;20.10;33.50;;;;;;5078510;28;19926;-72
2023/01/25 08:30:07;;;;;;;;;;;20.20;33.60;;;;;;5080007;28;19932;-68
2023/01/25 08:32:33;;;;;;;;;;;20.20;33.40;;;;;;5074858;28;19923;-69
2023/01/25 08:34:59;;;;;;;;;;;20.10;33.40;;;;;;5075116;28;20013;-71
2023/01/25 08:37:28;;;;;;;;;;;20.10;33.40;;;;;;5073530;28;20379;-71
2023/01/25 08:39:56;;;;;;;;;;;20.10;33.30;;;;;;5106744;27;20405;-68
2023/01/25 08:42:21;;;;;;;;;;;20.10;33.20;;;;;;5076532;28;20179;-66
2023/01/25 08:44:47;;;;;;;;;;;20.10;33.10;;;;;;5079108;28;20329;-67
2023/01/25 08:47:12;;;;;;;;;;;20.30;33.60;;;;;;5075862;28;19967;-72
2023/01/25 08:49:38;;;;;;;;;;;20.70;33.40;;;;;;5076587;28;20015;-72
2023/01/25 08:52:03;;;;;;;;;;;21.10;33.00;;;;;;5076568;28;19921;-72
2023/01/25 08:54:29;;;;;;;;;;;21.50;32.50;;;;;;5075717;28;20239;-72
2023/01/25 08:56:55;;;;;;;;;;;21.80;31.90;;;;;;5082948;28;19930;-70
2023/01/25 08:59:23;;;;;;;;;;;22.10;31.70;;;;;;5073423;28;19924;-75
2023/01/25 09:01:49;;;;;;;;;;;22.30;31.30;;;;;;5107399;27;20363;-76
2023/01/25 09:04:14;;;;;;;;;;;22.40;31.00;;;;;;5074167;28;19924;-76
2023/01/25 09:06:40;;;;;;;;;;;22.60;30.70;;;;;;5076320;28;20231;-77
2023/01/25 09:09:07;;;;;;;;;;;22.70;30.40;;;;;;5080621;28;20345;-68
2023/01/25 09:11:33;;;;;;;;;;;22.70;30.60;;;;;;5078805;28;20474;-68
2023/01/25 09:13:59;;;;;;;;;;;22.80;30.80;;;;;;5106778;27;19925;-70
2023/01/25 09:16:28;;;;;;;;;;;22.90;30.70;;;;;;5072342;28;19979;-69
2023/01/25 09:18:55;;;;;;;;;;;23.20;30.60;;;;;;5074763;28;19920;-69
2023/01/25 09:21:21;;;;;;;;;;;23.30;30.80;;;;;;5072262;28;19977;-69
2023/01/25 09:23:47;;;;;;;;;;;23.30;30.60;;;;;;5104218;27;19924;-72
2023/01/25 09:26:14;;;;;;;;;;;23.40;30.30;;;;;;5068005;28;19966;-72
2023/01/25 09:28:40;;;;;;;;;;;23.40;30.20;;;;;;5074644;28;19920;-72
2023/01/25 09:31:06;;;;;;;;;;;23.20;30.00;;;;;;5082056;28;19935;-72
2023/01/25 09:33:33;;;;;;;;;;;23.00;30.00;;;;;;5093947;28;19930;-72
2023/01/25 09:35:59;;;;;;;;;;;22.80;30.10;;;;;;5092066;28;20393;-72
2023/01/25 09:38:25;;;;;;;;;;;22.60;30.50;;;;;;5095385;28;20022;-72
2023/01/25 09:40:57;;;;;;;;;;;22.50;30.70;;;;;;5080031;28;19927;-73
2023/01/25 09:43:29;;;;;;;;;;;22.30;30.90;;;;;;5096296;28;19963;-72
2023/01/25 09:45:55;;;;;;;;;;;22.20;31.00;;;;;;5085539;28;19969;-72
2023/01/25 09:48:32;;;;;;;;;;;22.10;31.00;;;;;;5092282;28;19920;-73
2023/01/25 09:53:46;;;;;;;;;;;22.10;31.20;;;;;;5092336;27;19954;-72
2023/01/25 09:56:18;;;;;;;;;;;22.10;31.50;;;;;;5091065;28;20396;-70
2023/01/25 09:58:45;;;;;;;;;;;22.20;31.20;;;;;;5091127;28;20363;-70
2023/01/25 10:01:33;;;;;;;;;;;22.20;31.30;;;;;;5092220;28;20043;-70
2023/01/25 10:04:01;;;;;;;;;;;22.30;32.00;;;;;;5094841;28;19932;-68
2023/01/25 10:06:34;;;;;;;;;;;22.50;31.20;;;;;;5095273;28;19974;-70
2023/01/25 10:09:04;;;;;;;;;;;22.70;30.50;;;;;;5087867;28;19977;-71
2023/01/25 10:11:30;;;;;;;;;;;22.90;30.20;;;;;;5091365;28;19932;-70
2023/01/25 10:13:57;;;;;;;;;;;22.80;30.20;;;;;;5092271;28;20443;-71
2023/01/25 10:16:27;;;;;;;;;;;22.60;30.40;;;;;;5085948;28;19967;-71
2023/01/25 10:21:46;;;;;;;;;;;22.10;30.00;;;;;;5062627;28;19920;-65
2023/01/25 10:24:31;;;;;;;;;;;22.10;30.70;;;;;;5052148;28;19924;-77
2023/01/25 10:27:01;;;;;;;;;;;22.20;31.00;;;;;;5058861;28;19925;-72
2023/01/25 10:29:27;;;;;;;;;;;22.30;31.30;;;;;;5054561;28;19994;-73
2023/01/25 10:31:59;;;;;;;;;;;22.30;31.40;;;;;;5065999;28;19921;-71
2023/01/25 10:34:28;;;;;;;;;;;22.40;31.40;;;;;;5048584;28;19931;-70
2023/01/25 10:36:55;;;;;;;;;;;22.40;31.70;;;;;;5049140;28;19924;-71
2023/01/25 10:39:21;;;;;;;;;;;22.50;31.60;;;;;;5064689;28;19921;-69
2023/01/25 10:41:52;;;;;;;;;;;22.50;31.60;;;;;;5046208;28;20576;-68
2023/01/25 10:44:20;;;;;;;;;;;22.50;31.60;;;;;;5051269;28;19924;-71
2023/01/25 10:46:48;;;;;;;;;;;22.40;31.60;;;;;;5055981;28;19925;-70
2023/01/25 10:49:20;;;;;;;;;;;22.40;31.60;;;;;;5048048;28;20422;-71
2023/01/25 10:51:46;;;;;;;;;;;22.40;31.60;;;;;;5052425;28;19932;-70
2023/01/25 10:54:14;;;;;;;;;;;22.30;31.70;;;;;;5047326;28;20433;-69
2023/01/25 10:56:40;;;;;;;;;;;22.20;31.70;;;;;;5050884;28;19925;-71
2023/01/25 10:59:07;;;;;;;;;;;22.20;31.80;;;;;;5053222;28;19929;-69
2023/01/25 11:01:35;;;;;;;;;;;22.20;31.90;;;;;;5049843;28;19929;-71
2023/01/25 11:04:01;;;;;;;;;;;22.10;31.90;;;;;;5045271;28;19920;-68
2023/01/25 11:06:35;;;;;;;;;;;22.10;32.00;;;;;;5055799;28;19921;-68
2023/01/25 11:09:21;;;;;;;;;;;22.00;32.00;;;;;;5056967;28;19929;-68
2023/01/25 11:12:03;;;;;;;;;;;21.80;32.30;;;;;;5069482;28;20007;-69
2023/01/25 11:14:30;;;;;;;;;;;21.60;32.70;;;;;;5053761;28;20000;-69
2023/01/25 11:16:56;;;;;;;;;;;21.50;32.70;;;;;;5051681;28;19929;-68
2023/01/25 11:22:18;;;;;;;;;;;21.50;32.70;;;;;;5094751;27;19916;-69
2023/01/25 11:24:44;;;;;;;;;;;21.60;32.70;;;;;;5082344;28;19985;-69
2023/01/25 11:27:12;;;;;;;;;;;21.80;32.60;;;;;;5072743;28;19920;-69
2023/01/25 11:29:37;;;;;;;;;;;21.90;32.50;;;;;;5062322;28;19927;-69
2023/01/25 11:32:13;;;;;;;;;;;22.20;32.50;;;;;;5078813;28;20393;-69
2023/01/25 11:34:38;;;;;;;;;;;22.50;32.20;;;;;;5095560;28;19931;-69
2023/01/25 11:42:28;;;;;;;;;;;23.00;30.90;;;;;;5085117;27;19916;-69
2023/01/25 11:45:14;;;;;;;;;;;23.20;30.40;;;;;;5064390;28;19967;-68
2023/01/25 11:47:48;;;;;;;;;;;23.20;30.10;;;;;;5059683;28;19920;-69
2023/01/25 11:50:20;;;;;;;;;;;23.30;30.00;;;;;;5051526;28;19975;-69
2023/01/25 11:55:36;;;;;;;;;;;23.30;30.00;;;;;;5106494;27;20282;-69
2023/01/25 11:58:10;;;;;;;;;;;23.20;29.80;;;;;;5130914;27;19938;-69
2023/01/25 12:00:58;;;;;;;;;;;23.20;29.70;;;;;;5128401;27;19971;-70
2023/01/25 12:03:43;;;;;;;;;;;23.20;29.70;;;;;;5096622;28;19943;-69
2023/01/25 12:06:16;;;;;;;;;;;23.20;29.60;;;;;;5092911;28;20015;-69
2023/01/25 12:08:54;;;;;;;;;;;23.20;29.80;;;;;;5092721;28;19946;-69
2023/01/25 12:14:20;;;;;;;;;;;23.20;29.70;;;;;;5071865;28;19939;-69
2023/01/25 12:16:56;;;;;;;;;;;23.10;29.60;;;;;;5060244;28;20014;-70
2023/01/25 12:22:25;;;;;;;;;;;23.00;29.60;;;;;;5077623;27;20394;-70
2023/01/25 12:25:13;;;;;;;;;;;23.00;29.80;;;;;;5050662;28;19920;-70
2023/01/25 12:27:47;;;;;;;;;;;23.00;30.00;;;;;;5048518;28;19920;-70
2023/01/25 12:30:32;;;;;;;;;;;23.00;30.00;;;;;;5066519;28;19967;-70
2023/01/25 12:33:00;;;;;;;;;;;23.10;30.00;;;;;;5049064;28;19924;-70
2023/01/25 12:35:31;;;;;;;;;;;23.00;30.00;;;;;;5068411;28;19937;-71
2023/01/25 12:38:01;;;;;;;;;;;22.90;30.00;;;;;;5047597;28;19963;-71
2023/01/25 12:40:32;;;;;;;;;;;22.80;30.00;;;;;;5049718;28;19929;-70
2023/01/25 12:42:58;;;;;;;;;;;22.70;30.10;;;;;;5048941;28;20296;-71
2023/01/25 12:45:27;;;;;;;;;;;22.50;30.10;;;;;;5049646;28;20263;-70
2023/01/25 12:47:54;;;;;;;;;;;22.40;30.30;;;;;;5066705;28;19925;-71
2023/01/25 12:53:05;;;;;;;;;;;22.10;30.60;;;;;;5129069;27;20285;-70
2023/01/25 12:55:32;;;;;;;;;;;21.90;30.70;;;;;;5110739;28;19969;-70
2023/01/25 12:58:03;;;;;;;;;;;21.80;30.80;;;;;;5129285;28;19920;-70
2023/01/25 13:00:34;;;;;;;;;;;21.70;31.00;;;;;;5129369;28;19919;-70
2023/01/25 13:03:06;;;;;;;;;;;21.70;31.10;;;;;;5109563;28;20546;-70
2023/01/25 13:10:52;;;;;;;;;;;21.60;30.90;;;;;;5125880;27;1859424;-70
2023/01/25 13:13:20;;;;;;;;;;;21.50;30.90;;;;;;5173091;27;20360;-71
2023/01/25 13:15:46;;;;;;;;;;;21.50;31.00;;;;;;5173349;27;19918;-70
2023/01/25 13:21:10;;;;;;;;;;;21.40;31.10;;;;;;5088261;28;19913;-71
2023/01/25 13:23:42;;;;;;;;;;;21.30;31.20;;;;;;5086260;28;19920;-70
2023/01/25 13:29:24;;;;;;;;;;;21.30;31.40;;;;;;5084363;28;19916;-69
2023/01/25 13:31:52;;;;;;;;;;;21.20;31.40;;;;;;5085868;28;19928;-70
2023/01/25 13:34:38;;;;;;;;;;;21.30;31.40;;;;;;5085183;28;19970;-70
2023/01/25 13:42:33;;;;;;;;;;;21.00;31.60;;;;;;5113500;27;20458;-70
2023/01/25 13:45:17;;;;;;;;;;;20.90;31.60;;;;;;5108131;28;19997;-70
2023/01/25 13:47:44;;;;;;;;;;;20.80;31.80;;;;;;5088704;28;19924;-72
2023/01/25 13:50:25;;;;;;;;;;;20.80;31.90;;;;;;5087912;28;20019;-72
2023/01/25 13:52:59;;;;;;;;;;;20.70;31.90;;;;;;5088086;28;20399;-72
2023/01/25 13:55:26;;;;;;;;;;;20.70;32.10;;;;;;5090020;28;19932;-72
2023/01/25 13:57:53;;;;;;;;;;;20.60;32.20;;;;;;5088837;28;19924;-72
2023/01/25 14:00:19;;;;;;;;;;;20.50;32.20;;;;;;5089171;28;19932;-72
2023/01/25 14:02:47;;;;;;;;;;;20.50;32.30;;;;;;5088063;28;20481;-72
2023/01/25 14:05:17;;;;;;;;;;;20.50;32.30;;;;;;5106649;28;19974;-72
2023/01/25 14:07:44;;;;;;;;;;;20.40;32.30;;;;;;5085194;28;20010;-72
2023/01/25 14:10:14;;;;;;;;;;;20.40;32.40;;;;;;5089075;28;19920;-72
2023/01/25 14:12:41;;;;;;;;;;;20.30;32.40;;;;;;5085581;28;19920;-73
2023/01/25 14:20:44;;;;;;;;;;;20.10;32.60;;;;;;5087828;28;19916;-72
2023/01/25 14:23:26;;;;;;;;;;;20.10;32.70;;;;;;5087087;28;20452;-72
2023/01/25 14:25:52;;;;;;;;;;;20.00;32.70;;;;;;5088135;28;19986;-72
2023/01/25 14:28:19;;;;;;;;;;;20.00;32.80;;;;;;5086628;28;19920;-72
2023/01/25 14:30:49;;;;;;;;;;;19.90;32.90;;;;;;5088427;28;19986;-72
2023/01/25 14:33:17;;;;;;;;;;;19.80;32.90;;;;;;5087600;28;20093;-73
2023/01/25 14:35:43;;;;;;;;;;;19.80;33.00;;;;;;5086915;28;20307;-73
2023/01/25 14:38:29;;;;;;;;;;;19.80;33.00;;;;;;5086078;28;19927;-73
2023/01/25 14:40:56;;;;;;;;;;;19.70;33.10;;;;;;5087499;28;19932;-72
2023/01/25 14:43:22;;;;;;;;;;;19.60;33.00;;;;;;5087888;28;20291;-72
2023/01/25 14:45:48;;;;;;;;;;;19.60;33.00;;;;;;5087188;28;19920;-72
2023/01/25 14:48:33;;;;;;;;;;;19.60;33.00;;;;;;5086691;28;19978;-77
2023/01/25 14:51:20;;;;;;;;;;;19.60;33.00;;;;;;5087330;28;19927;-72
2023/01/25 14:53:51;;;;;;;;;;;19.50;33.00;;;;;;5086854;28;19920;-72
2023/01/25 14:56:24;;;;;;;;;;;19.50;33.00;;;;;;5088373;28;19966;-72
2023/01/25 14:58:53;;;;;;;;;;;19.40;33.10;;;;;;5087170;28;19924;-72
2023/01/25 15:01:24;;;;;;;;;;;19.40;33.10;;;;;;5086984;28;19926;-73
2023/01/25 15:03:49;;;;;;;;;;;19.30;33.10;;;;;;5086606;28;20121;-72
2023/01/25 15:06:15;;;;;;;;;;;19.30;33.10;;;;;;5086348;28;20185;-73
2023/01/25 15:08:40;;;;;;;;;;;19.20;33.20;;;;;;5085892;28;19921;-73
2023/01/25 15:11:55;;;;;;;;;;;19.20;33.30;;;;;;5087455;28;19920;-73
2023/01/25 15:14:14;;;;;;;;;;;19.10;33.40;;;;;;5086666;28;20307;-73
2023/01/25 15:16:41;;;;;;;;;;;19.00;33.40;;;;;;5088033;28;20264;-73
2023/01/25 15:19:19;;;;;;;;;;;18.90;33.50;;;;;;5086049;28;19925;-73
2023/01/25 15:21:45;;;;;;;;;;;18.90;33.50;;;;;;5087068;28;19924;-73
2023/01/25 15:24:11;;;;;;;;;;;18.80;33.60;;;;;;5086058;28;20390;-72